sensor_id;sensor_type;location;lat;lon;timestamp;pressure;altitude;pressure_sealevel;temperature;humidity
6094;BME280;19964;42.060;24.700;2023-08-06T00:01:25;96191.84;;;24.26;92.56
6094;BME280;19964;42.060;24.700;2023-08-06T00:03:52;96182.50;;;24.17;93.96
6094;BME280;19964;42.060;24.700;2023-08-06T00:06:19;96177.63;;;24.19;93.93
6094;BME280;19964;42.060;24.700;2023-08-06T00:08:45;96177.75;;;24.22;93.42
6094;BME280;19964;42.060;24.700;2023-08-06T00:11:12;96178.78;;;24.18;94.29
6094;BME280;19964;42.060;24.700;2023-08-06T00:13:39;96174.31;;;24.22;93.83
6094;BME280;19964;42.060;24.700;2023-08-06T00:16:09;96179.63;;;23.75;97.48
6094;BME280;19964;42.060;24.700;2023-08-06T00:18:37;96172.53;;;23.95;96.33
6094;BME280;19964;42.060;24.700;2023-08-06T00:21:04;96177.34;;;24.05;95.62
6094;BME280;19964;42.060;24.700;2023-08-06T00:23:31;96174.31;;;23.75;97.91
6094;BME280;19964;42.060;24.700;2023-08-06T00:25:57;96171.69;;;23.91;97.27
6094;BME280;19964;42.060;24.700;2023-08-06T00:28:24;96187.03;;;23.69;98.89
6094;BME280;19964;42.060;24.700;2023-08-06T00:30:52;96185.84;;;23.67;100.00
6094;BME280;19964;42.060;24.700;2023-08-06T00:33:19;96201.09;;;23.58;99.96
6094;BME280;19964;42.060;24.700;2023-08-06T00:35:47;96186.78;;;23.31;100.00
6094;BME280;19964;42.060;24.700;2023-08-06T00:38:13;96186.06;;;23.31;100.00
6094;BME280;19964;42.060;24.700;2023-08-06T00:40:40;96181.50;;;23.31;100.00
6094;BME280;19964;42.060;24.700;2023-08-06T00:43:07;96183.00;;;23.17;100.00
6094;BME280;19964;42.060;24.700;2023-08-06T00:45:34;96182.22;;;22.88;100.00
6094;BME280;19964;42.060;24.700;2023-08-06T00:48:01;96182.78;;;23.10;100.00
6094;BME280;19964;42.060;24.700;2023-08-06T00:50:28;96182.59;;;23.30;100.00
6094;BME280;19964;42.060;24.700;2023-08-06T00:52:56;96161.25;;;23.23;100.00
6094;BME280;19964;42.060;24.700;2023-08-06T00:55:23;96156.13;;;22.87;100.00
6094;BME280;19964;42.060;24.700;2023-08-06T00:57:49;96158.53;;;22.92;100.00
6094;BME280;19964;42.060;24.700;2023-08-06T01:00:18;96155.41;;;23.02;100.00
6094;BME280;19964;42.060;24.700;2023-08-06T01:02:45;96155.63;;;23.09;100.00
6094;BME280;19964;42.060;24.700;2023-08-06T01:05:12;96154.84;;;23.09;100.00
6094;BME280;19964;42.060;24.700;2023-08-06T01:07:41;96147.47;;;23.02;100.00
6094;BME280;19964;42.060;24.700;2023-08-06T01:10:19;96147.44;;;22.86;100.00
6094;BME280;19964;42.060;24.700;2023-08-06T01:12:52;96154.53;;;22.70;100.00
6094;BME280;19964;42.060;24.700;2023-08-06T01:15:22;96144.13;;;22.62;100.00
6094;BME280;19964;42.060;24.700;2023-08-06T01:17:50;96151.56;;;22.72;100.00
6094;BME280;19964;42.060;24.700;2023-08-06T01:20:16;96136.38;;;22.69;100.00
6094;BME280;19964;42.060;24.700;2023-08-06T01:22:44;96156.94;;;22.75;100.00
6094;BME280;19964;42.060;24.700;2023-08-06T01:25:11;96162.63;;;22.89;100.00
6094;BME280;19964;42.060;24.700;2023-08-06T01:27:43;96155.31;;;22.71;100.00
6094;BME280;19964;42.060;24.700;2023-08-06T01:30:12;96152.66;;;22.71;100.00
6094;BME280;19964;42.060;24.700;2023-08-06T01:32:39;96136.78;;;22.83;100.00
6094;BME280;19964;42.060;24.700;2023-08-06T01:35:08;96136.97;;;22.90;100.00
6094;BME280;19964;42.060;24.700;2023-08-06T01:37:37;96132.53;;;22.94;100.00
6094;BME280;19964;42.060;24.700;2023-08-06T01:40:08;96125.97;;;22.88;100.00
6094;BME280;19964;42.060;24.700;2023-08-06T01:42:36;96125.00;;;22.80;100.00
6094;BME280;19964;42.060;24.700;2023-08-06T01:45:02;96114.72;;;22.51;100.00
6094;BME280;19964;42.060;24.700;2023-08-06T01:47:29;96114.19;;;22.58;100.00
6094;BME280;19964;42.060;24.700;2023-08-06T01:49:56;96128.88;;;22.71;100.00
6094;BME280;19964;42.060;24.700;2023-08-06T01:52:22;96119.16;;;22.87;100.00
6094;BME280;19964;42.060;24.700;2023-08-06T01:54:49;96124.44;;;22.87;100.00
6094;BME280;19964;42.060;24.700;2023-08-06T01:57:17;96152.25;;;22.96;100.00
6094;BME280;19964;42.060;24.700;2023-08-06T01:59:44;96165.41;;;23.09;100.00
6094;BME280;19964;42.060;24.700;2023-08-06T02:02:10;96161.13;;;23.32;100.00
6094;BME280;19964;42.060;24.700;2023-08-06T02:04:37;96138.22;;;23.51;100.00
6094;BME280;19964;42.060;24.700;2023-08-06T02:07:04;96124.31;;;23.54;100.00
6094;BME280;19964;42.060;24.700;2023-08-06T02:09:31;96126.00;;;23.31;100.00
6094;BME280;19964;42.060;24.700;2023-08-06T02:11:57;96135.06;;;23.46;100.00
6094;BME280;19964;42.060;24.700;2023-08-06T02:14:25;96122.34;;;23.67;100.00
6094;BME280;19964;42.060;24.700;2023-08-06T02:16:52;96120.91;;;23.54;100.00
6094;BME280;19964;42.060;24.700;2023-08-06T02:19:19;96135.00;;;23.42;100.00
6094;BME280;19964;42.060;24.700;2023-08-06T02:21:45;96137.44;;;23.51;100.00
6094;BME280;19964;42.060;24.700;2023-08-06T02:24:12;96116.13;;;23.44;100.00
6094;BME280;19964;42.060;24.700;2023-08-06T02:26:39;96127.13;;;23.46;100.00
6094;BME280;19964;42.060;24.700;2023-08-06T02:29:05;96114.69;;;23.46;100.00
6094;BME280;19964;42.060;24.700;2023-08-06T02:31:33;96123.72;;;23.45;100.00
6094;BME280;19964;42.060;24.700;2023-08-06T02:34:00;96120.59;;;23.28;100.00
6094;BME280;19964;42.060;24.700;2023-08-06T02:36:27;96120.22;;;23.14;100.00
6094;BME280;19964;42.060;24.700;2023-08-06T02:38:54;96115.13;;;23.33;100.00
6094;BME280;19964;42.060;24.700;2023-08-06T02:41:21;96109.47;;;23.34;100.00
6094;BME280;19964;42.060;24.700;2023-08-06T02:43:47;96113.59;;;23.20;100.00
6094;BME280;19964;42.060;24.700;2023-08-06T02:46:14;96123.47;;;23.07;100.00
6094;BME280;19964;42.060;24.700;2023-08-06T02:48:42;96120.28;;;23.01;100.00
6094;BME280;19964;42.060;24.700;2023-08-06T02:51:09;96129.75;;;23.02;100.00
6094;BME280;19964;42.060;24.700;2023-08-06T02:53:35;96120.41;;;22.77;100.00
6094;BME280;19964;42.060;24.700;2023-08-06T02:56:02;96122.06;;;22.82;100.00
6094;BME280;19964;42.060;24.700;2023-08-06T02:58:29;96117.69;;;22.74;100.00
6094;BME280;19964;42.060;24.700;2023-08-06T03:00:59;96105.72;;;22.64;100.00
6094;BME280;19964;42.060;24.700;2023-08-06T03:03:28;96115.06;;;22.50;100.00
6094;BME280;19964;42.060;24.700;2023-08-06T03:05:56;96117.47;;;22.55;100.00
6094;BME280;19964;42.060;24.700;2023-08-06T03:08:23;96117.00;;;22.25;100.00
6094;BME280;19964;42.060;24.700;2023-08-06T03:10:50;96109.31;;;22.08;100.00
6094;BME280;19964;42.060;24.700;2023-08-06T03:13:17;96107.34;;;22.05;100.00
6094;BME280;19964;42.060;24.700;2023-08-06T03:15:45;96107.66;;;21.79;100.00
6094;BME280;19964;42.060;24.700;2023-08-06T03:18:17;96111.41;;;22.02;100.00
6094;BME280;19964;42.060;24.700;2023-08-06T03:20:44;96110.44;;;22.07;100.00
6094;BME280;19964;42.060;24.700;2023-08-06T03:23:12;96116.38;;;21.92;100.00
6094;BME280;19964;42.060;24.700;2023-08-06T03:25:39;96120.00;;;21.87;100.00
6094;BME280;19964;42.060;24.700;2023-08-06T03:28:05;96122.97;;;21.86;100.00
6094;BME280;19964;42.060;24.700;2023-08-06T03:30:32;96121.19;;;21.66;100.00
6094;BME280;19964;42.060;24.700;2023-08-06T03:32:59;96115.88;;;21.42;100.00
6094;BME280;19964;42.060;24.700;2023-08-06T03:35:25;96112.28;;;21.58;100.00
6094;BME280;19964;42.060;24.700;2023-08-06T03:37:52;96114.81;;;21.67;100.00
6094;BME280;19964;42.060;24.700;2023-08-06T03:40:20;96114.06;;;21.78;100.00
6094;BME280;19964;42.060;24.700;2023-08-06T03:42:47;96117.34;;;21.75;100.00
6094;BME280;19964;42.060;24.700;2023-08-06T03:45:13;96109.78;;;21.86;100.00
6094;BME280;19964;42.060;24.700;2023-08-06T03:47:40;96114.03;;;21.66;100.00
6094;BME280;19964;42.060;24.700;2023-08-06T03:50:07;96119.66;;;21.65;100.00
6094;BME280;19964;42.060;24.700;2023-08-06T03:52:34;96126.69;;;21.97;100.00
6094;BME280;19964;42.060;24.700;2023-08-06T03:55:00;96126.59;;;22.18;100.00
6094;BME280;19964;42.060;24.700;2023-08-06T03:57:29;96127.75;;;22.32;100.00
6094;BME280;19964;42.060;24.700;2023-08-06T03:59:55;96126.34;;;22.35;100.00
6094;BME280;19964;42.060;24.700;2023-08-06T04:02:22;96138.22;;;22.29;100.00
6094;BME280;19964;42.060;24.700;2023-08-06T04:04:48;96139.97;;;22.37;100.00
6094;BME280;19964;42.060;24.700;2023-08-06T04:07:15;96139.44;;;22.19;100.00
6094;BME280;19964;42.060;24.700;2023-08-06T04:09:52;96139.44;;;21.95;100.00
6094;BME280;19964;42.060;24.700;2023-08-06T04:12:19;96142.09;;;22.19;100.00
6094;BME280;19964;42.060;24.700;2023-08-06T04:14:47;96139.19;;;22.36;100.00
6094;BME280;19964;42.060;24.700;2023-08-06T04:17:13;96136.13;;;22.22;100.00
6094;BME280;19964;42.060;24.700;2023-08-06T04:19:40;96142.41;;;22.18;100.00
6094;BME280;19964;42.060;24.700;2023-08-06T04:22:07;96151.09;;;22.06;100.00
6094;BME280;19964;42.060;24.700;2023-08-06T04:24:33;96150.75;;;21.83;100.00
6094;BME280;19964;42.060;24.700;2023-08-06T04:27:00;96159.47;;;21.84;100.00
6094;BME280;19964;42.060;24.700;2023-08-06T04:29:26;96165.28;;;21.89;100.00
6094;BME280;19964;42.060;24.700;2023-08-06T04:31:54;96161.53;;;22.14;100.00
6094;BME280;19964;42.060;24.700;2023-08-06T04:34:21;96159.34;;;22.29;100.00
6094;BME280;19964;42.060;24.700;2023-08-06T04:36:48;96155.47;;;22.26;100.00
6094;BME280;19964;42.060;24.700;2023-08-06T04:39:15;96153.94;;;22.25;100.00
6094;BME280;19964;42.060;24.700;2023-08-06T04:41:41;96141.63;;;22.29;100.00
6094;BME280;19964;42.060;24.700;2023-08-06T04:44:08;96132.91;;;22.53;100.00
6094;BME280;19964;42.060;24.700;2023-08-06T04:46:35;96145.50;;;22.71;100.00
6094;BME280;19964;42.060;24.700;2023-08-06T04:49:03;96163.38;;;22.90;100.00
6094;BME280;19964;42.060;24.700;2023-08-06T04:51:29;96150.34;;;23.09;100.00
6094;BME280;19964;42.060;24.700;2023-08-06T04:53:56;96143.19;;;23.25;100.00
6094;BME280;19964;42.060;24.700;2023-08-06T04:56:23;96139.22;;;23.31;100.00
6094;BME280;19964;42.060;24.700;2023-08-06T04:58:50;96145.47;;;23.11;100.00
6094;BME280;19964;42.060;24.700;2023-08-06T05:01:16;96152.72;;;23.14;100.00
6094;BME280;19964;42.060;24.700;2023-08-06T05:03:43;96159.66;;;23.19;100.00
6094;BME280;19964;42.060;24.700;2023-08-06T05:06:11;96153.00;;;23.25;100.00
6094;BME280;19964;42.060;24.700;2023-08-06T05:08:38;96148.88;;;23.12;100.00
6094;BME280;19964;42.060;24.700;2023-08-06T05:11:04;96139.66;;;23.06;100.00
6094;BME280;19964;42.060;24.700;2023-08-06T05:13:31;96135.78;;;23.15;100.00
6094;BME280;19964;42.060;24.700;2023-08-06T05:15:58;96145.66;;;23.18;100.00
6094;BME280;19964;42.060;24.700;2023-08-06T05:18:24;96153.44;;;22.99;100.00
6094;BME280;19964;42.060;24.700;2023-08-06T05:20:51;96166.19;;;22.81;100.00
6094;BME280;19964;42.060;24.700;2023-08-06T05:23:19;96167.88;;;22.62;100.00
6094;BME280;19964;42.060;24.700;2023-08-06T05:25:46;96150.53;;;22.76;100.00
6094;BME280;19964;42.060;24.700;2023-08-06T05:28:12;96152.00;;;22.74;100.00
6094;BME280;19964;42.060;24.700;2023-08-06T05:30:39;96118.16;;;22.64;100.00
6094;BME280;19964;42.060;24.700;2023-08-06T05:33:06;96153.44;;;22.99;100.00
6094;BME280;19964;42.060;24.700;2023-08-06T05:35:32;96149.06;;;22.91;100.00
6094;BME280;19964;42.060;24.700;2023-08-06T05:37:59;96142.75;;;22.80;100.00
6094;BME280;19964;42.060;24.700;2023-08-06T05:40:27;96140.41;;;22.27;100.00
6094;BME280;19964;42.060;24.700;2023-08-06T05:42:54;96136.47;;;22.08;100.00
6094;BME280;19964;42.060;24.700;2023-08-06T05:45:21;96128.03;;;22.03;100.00
6094;BME280;19964;42.060;24.700;2023-08-06T05:47:48;96127.25;;;22.02;100.00
6094;BME280;19964;42.060;24.700;2023-08-06T05:50:14;96128.47;;;22.05;100.00
6094;BME280;19964;42.060;24.700;2023-08-06T05:52:41;96135.38;;;21.85;100.00
6094;BME280;19964;42.060;24.700;2023-08-06T05:55:08;96133.78;;;21.48;100.00
6094;BME280;19964;42.060;24.700;2023-08-06T05:57:36;96120.09;;;21.67;100.00
6094;BME280;19964;42.060;24.700;2023-08-06T06:00:03;96109.53;;;21.67;100.00
6094;BME280;19964;42.060;24.700;2023-08-06T06:02:31;96101.63;;;21.55;100.00
6094;BME280;19964;42.060;24.700;2023-08-06T06:05:00;96091.72;;;21.52;100.00
6094;BME280;19964;42.060;24.700;2023-08-06T06:07:27;96109.63;;;21.46;100.00
6094;BME280;19964;42.060;24.700;2023-08-06T06:09:53;96110.94;;;21.52;100.00
6094;BME280;19964;42.060;24.700;2023-08-06T06:12:20;96116.88;;;21.49;100.00
6094;BME280;19964;42.060;24.700;2023-08-06T06:14:49;96117.78;;;21.53;100.00
6094;BME280;19964;42.060;24.700;2023-08-06T06:17:15;96103.16;;;21.68;100.00
6094;BME280;19964;42.060;24.700;2023-08-06T06:19:42;96104.72;;;21.81;100.00
6094;BME280;19964;42.060;24.700;2023-08-06T06:22:09;96105.72;;;21.88;100.00
6094;BME280;19964;42.060;24.700;2023-08-06T06:24:35;96109.66;;;21.70;100.00
6094;BME280;19964;42.060;24.700;2023-08-06T06:27:02;96117.34;;;21.75;100.00
6094;BME280;19964;42.060;24.700;2023-08-06T06:29:29;96118.59;;;21.90;100.00
6094;BME280;19964;42.060;24.700;2023-08-06T06:31:57;96126.16;;;21.91;100.00
6094;BME280;19964;42.060;24.700;2023-08-06T06:34:24;96138.22;;;21.68;100.00
6094;BME280;19964;42.060;24.700;2023-08-06T06:36:50;96137.94;;;21.94;100.00
6094;BME280;19964;42.060;24.700;2023-08-06T06:39:17;96139.00;;;21.93;100.00
6094;BME280;19964;42.060;24.700;2023-08-06T06:41:44;96145.59;;;22.11;100.00
6094;BME280;19964;42.060;24.700;2023-08-06T06:44:10;96147.44;;;22.35;100.00
6094;BME280;19964;42.060;24.700;2023-08-06T06:46:37;96140.59;;;22.58;100.00
6094;BME280;19964;42.060;24.700;2023-08-06T06:49:05;96138.84;;;22.62;100.00
6094;BME280;19964;42.060;24.700;2023-08-06T06:51:32;96132.19;;;22.80;100.00
6094;BME280;19964;42.060;24.700;2023-08-06T06:53:58;96124.44;;;23.30;100.00
6094;BME280;19964;42.060;24.700;2023-08-06T06:56:25;96127.56;;;23.48;100.00
6094;BME280;19964;42.060;24.700;2023-08-06T06:58:52;96131.06;;;23.83;100.00
6094;BME280;19964;42.060;24.700;2023-08-06T07:01:18;96131.03;;;23.99;100.00
6094;BME280;19964;42.060;24.700;2023-08-06T07:03:45;96131.66;;;24.08;100.00
6094;BME280;19964;42.060;24.700;2023-08-06T07:06:13;96132.41;;;24.24;100.00
6094;BME280;19964;42.060;24.700;2023-08-06T07:08:40;96138.75;;;24.92;100.00
6094;BME280;19964;42.060;24.700;2023-08-06T07:11:07;96154.59;;;25.30;100.00
6094;BME280;19964;42.060;24.700;2023-08-06T07:13:34;96160.91;;;25.22;100.00
6094;BME280;19964;42.060;24.700;2023-08-06T07:16:01;96166.06;;;25.15;100.00
6094;BME280;19964;42.060;24.700;2023-08-06T07:18:28;96167.53;;;25.13;100.00
6094;BME280;19964;42.060;24.700;2023-08-06T07:20:54;96175.69;;;25.23;100.00
6094;BME280;19964;42.060;24.700;2023-08-06T07:23:23;96181.34;;;25.03;100.00
6094;BME280;19964;42.060;24.700;2023-08-06T07:25:50;96191.47;;;25.16;100.00
6094;BME280;19964;42.060;24.700;2023-08-06T07:28:17;96202.84;;;25.17;100.00
6094;BME280;19964;42.060;24.700;2023-08-06T07:30:44;96196.34;;;25.14;100.00
6094;BME280;19964;42.060;24.700;2023-08-06T07:33:11;96185.06;;;25.17;100.00
6094;BME280;19964;42.060;24.700;2023-08-06T07:35:38;96175.56;;;25.35;100.00
6094;BME280;19964;42.060;24.700;2023-08-06T07:38:05;96179.13;;;25.43;99.66
6094;BME280;19964;42.060;24.700;2023-08-06T07:43:00;96193.63;;;25.49;97.77
6094;BME280;19964;42.060;24.700;2023-08-06T07:45:27;96184.56;;;25.31;100.00
6094;BME280;19964;42.060;24.700;2023-08-06T07:47:54;96176.38;;;24.63;100.00
6094;BME280;19964;42.060;24.700;2023-08-06T07:50:20;96177.78;;;24.41;100.00
6094;BME280;19964;42.060;24.700;2023-08-06T07:52:47;96194.84;;;23.50;100.00
6094;BME280;19964;42.060;24.700;2023-08-06T07:55:14;96189.81;;;23.18;100.00
6094;BME280;19964;42.060;24.700;2023-08-06T07:57:41;96192.59;;;22.81;100.00
6094;BME280;19964;42.060;24.700;2023-08-06T08:00:09;96207.47;;;22.62;100.00
6094;BME280;19964;42.060;24.700;2023-08-06T08:02:36;96216.28;;;22.42;100.00
6094;BME280;19964;42.060;24.700;2023-08-06T08:05:03;96209.56;;;22.08;100.00
6094;BME280;19964;42.060;24.700;2023-08-06T08:07:29;96212.44;;;22.03;100.00
6094;BME280;19964;42.060;24.700;2023-08-06T08:09:56;96222.00;;;22.20;100.00
6094;BME280;19964;42.060;24.700;2023-08-06T08:12:23;96217.16;;;22.09;100.00
6094;BME280;19964;42.060;24.700;2023-08-06T08:14:49;96215.06;;;22.15;100.00
6094;BME280;19964;42.060;24.700;2023-08-06T08:17:17;96204.84;;;22.01;100.00
6094;BME280;19964;42.060;24.700;2023-08-06T08:19:44;96207.38;;;21.98;100.00
6094;BME280;19964;42.060;24.700;2023-08-06T08:22:11;96210.88;;;21.90;100.00
6094;BME280;19964;42.060;24.700;2023-08-06T08:24:38;96205.38;;;21.83;100.00
6094;BME280;19964;42.060;24.700;2023-08-06T08:27:04;96151.03;;;21.58;100.00
6094;BME280;19964;42.060;24.700;2023-08-06T08:29:31;96210.34;;;22.08;100.00
6094;BME280;19964;42.060;24.700;2023-08-06T08:31:58;96213.75;;;22.21;100.00
6094;BME280;19964;42.060;24.700;2023-08-06T08:34:26;96218.91;;;22.30;100.00
6094;BME280;19964;42.060;24.700;2023-08-06T08:36:53;96200.03;;;22.16;100.00
6094;BME280;19964;42.060;24.700;2023-08-06T08:39:19;96192.84;;;22.28;100.00
6094;BME280;19964;42.060;24.700;2023-08-06T08:41:46;96194.06;;;22.43;100.00
6094;BME280;19964;42.060;24.700;2023-08-06T08:44:13;96197.78;;;22.42;100.00
6094;BME280;19964;42.060;24.700;2023-08-06T08:46:43;96195.38;;;22.49;100.00
6094;BME280;19964;42.060;24.700;2023-08-06T08:49:10;96194.91;;;22.71;100.00
6094;BME280;19964;42.060;24.700;2023-08-06T08:51:38;96190.22;;;22.92;100.00
6094;BME280;19964;42.060;24.700;2023-08-06T08:54:06;96200.47;;;23.21;100.00
6094;BME280;19964;42.060;24.700;2023-08-06T08:56:33;96196.31;;;23.48;100.00
6094;BME280;19964;42.060;24.700;2023-08-06T08:59:00;96182.63;;;23.89;100.00
6094;BME280;19964;42.060;24.700;2023-08-06T09:01:27;96184.84;;;24.53;97.50
6094;BME280;19964;42.060;24.700;2023-08-06T09:03:55;96186.41;;;25.49;94.25
6094;BME280;19964;42.060;24.700;2023-08-06T09:06:22;96183.75;;;26.40;83.48
6094;BME280;19964;42.060;24.700;2023-08-06T09:08:54;96185.88;;;26.83;80.46
6094;BME280;19964;42.060;24.700;2023-08-06T09:11:22;96184.84;;;27.58;80.29
6094;BME280;19964;42.060;24.700;2023-08-06T09:13:48;96179.75;;;28.37;86.80
6094;BME280;19964;42.060;24.700;2023-08-06T09:16:15;96188.78;;;28.18;67.13
6094;BME280;19964;42.060;24.700;2023-08-06T09:18:42;96184.16;;;28.11;66.02
6094;BME280;19964;42.060;24.700;2023-08-06T09:21:13;96180.78;;;28.72;64.21
6094;BME280;19964;42.060;24.700;2023-08-06T09:23:40;96174.75;;;28.89;64.63
6094;BME280;19964;42.060;24.700;2023-08-06T09:26:08;96178.66;;;28.38;62.14
6094;BME280;19964;42.060;24.700;2023-08-06T09:28:37;96174.13;;;28.49;62.05
6094;BME280;19964;42.060;24.700;2023-08-06T09:31:06;96165.19;;;28.81;62.62
6094;BME280;19964;42.060;24.700;2023-08-06T09:33:33;96164.59;;;29.23;60.19
6094;BME280;19964;42.060;24.700;2023-08-06T09:36:06;96172.41;;;28.77;61.16
6094;BME280;19964;42.060;24.700;2023-08-06T09:38:37;96174.44;;;28.37;62.96
6094;BME280;19964;42.060;24.700;2023-08-06T09:41:04;96176.91;;;28.63;60.32
6094;BME280;19964;42.060;24.700;2023-08-06T09:43:32;96178.34;;;29.32;60.85
6094;BME280;19964;42.060;24.700;2023-08-06T09:46:10;96169.59;;;29.42;58.79
6094;BME280;19964;42.060;24.700;2023-08-06T09:48:38;96156.63;;;29.41;59.54
6094;BME280;19964;42.060;24.700;2023-08-06T09:51:06;96163.53;;;29.66;59.84
6094;BME280;19964;42.060;24.700;2023-08-06T09:53:36;96164.25;;;29.35;59.33
6094;BME280;19964;42.060;24.700;2023-08-06T09:56:03;96162.94;;;28.90;58.93
6094;BME280;19964;42.060;24.700;2023-08-06T09:58:32;96166.44;;;29.09;59.48
6094;BME280;19964;42.060;24.700;2023-08-06T10:00:59;96148.97;;;29.32;58.80
6094;BME280;19964;42.060;24.700;2023-08-06T10:03:26;96153.28;;;29.72;59.66
6094;BME280;19964;42.060;24.700;2023-08-06T10:05:54;96143.34;;;30.11;59.02
6094;BME280;19964;42.060;24.700;2023-08-06T10:08:21;96144.09;;;29.94;55.22
6094;BME280;19964;42.060;24.700;2023-08-06T10:10:48;96142.19;;;30.30;60.97
6094;BME280;19964;42.060;24.700;2023-08-06T10:13:15;96148.25;;;30.48;54.23
6094;BME280;19964;42.060;24.700;2023-08-06T10:15:44;96134.94;;;30.09;55.08
6094;BME280;19964;42.060;24.700;2023-08-06T10:18:11;96128.44;;;30.17;55.58
6094;BME280;19964;42.060;24.700;2023-08-06T10:20:38;96128.47;;;29.89;55.39
6094;BME280;19964;42.060;24.700;2023-08-06T10:23:05;96125.75;;;30.21;55.21
6094;BME280;19964;42.060;24.700;2023-08-06T10:25:33;96135.69;;;30.10;55.67
6094;BME280;19964;42.060;24.700;2023-08-06T10:28:00;96128.81;;;30.16;54.32
6094;BME280;19964;42.060;24.700;2023-08-06T10:30:28;96136.75;;;30.61;55.53
6094;BME280;19964;42.060;24.700;2023-08-06T10:32:57;96130.81;;;31.16;53.63
6094;BME280;19964;42.060;24.700;2023-08-06T10:35:32;96132.50;;;30.82;53.14
6094;BME280;19964;42.060;24.700;2023-08-06T10:38:04;96141.28;;;30.79;54.07
6094;BME280;19964;42.060;24.700;2023-08-06T10:40:31;96138.75;;;30.33;53.55
6094;BME280;19964;42.060;24.700;2023-08-06T10:43:02;96138.00;;;30.15;54.55
6094;BME280;19964;42.060;24.700;2023-08-06T10:45:29;96136.47;;;30.17;54.97
6094;BME280;19964;42.060;24.700;2023-08-06T10:47:57;96133.78;;;30.10;55.76
6094;BME280;19964;42.060;24.700;2023-08-06T10:50:24;96145.59;;;30.16;53.17
6094;BME280;19964;42.060;24.700;2023-08-06T10:52:51;96147.53;;;30.12;53.85
6094;BME280;19964;42.060;24.700;2023-08-06T10:55:24;96162.78;;;30.43;52.41
6094;BME280;19964;42.060;24.700;2023-08-06T10:57:51;96166.19;;;30.47;52.54
6094;BME280;19964;42.060;24.700;2023-08-06T11:00:17;96143.69;;;30.41;53.54
6094;BME280;19964;42.060;24.700;2023-08-06T11:02:44;96148.53;;;30.74;51.18
6094;BME280;19964;42.060;24.700;2023-08-06T11:05:14;96145.88;;;30.74;48.84
6094;BME280;19964;42.060;24.700;2023-08-06T11:07:41;96145.69;;;31.20;48.78
6094;BME280;19964;42.060;24.700;2023-08-06T11:10:08;96142.22;;;31.30;51.58
6094;BME280;19964;42.060;24.700;2023-08-06T11:12:35;96148.47;;;31.68;49.47
6094;BME280;19964;42.060;24.700;2023-08-06T11:15:02;96155.78;;;31.61;48.76
6094;BME280;19964;42.060;24.700;2023-08-06T11:17:30;96168.09;;;31.54;48.32
6094;BME280;19964;42.060;24.700;2023-08-06T11:19:58;96152.59;;;31.18;48.31
6094;BME280;19964;42.060;24.700;2023-08-06T11:22:26;96160.41;;;30.88;48.01
6094;BME280;19964;42.060;24.700;2023-08-06T11:24:53;96152.28;;;31.05;48.09
6094;BME280;19964;42.060;24.700;2023-08-06T11:27:20;96159.00;;;31.31;46.80
6094;BME280;19964;42.060;24.700;2023-08-06T11:29:46;96171.47;;;31.66;48.31
6094;BME280;19964;42.060;24.700;2023-08-06T11:32:13;96162.03;;;32.02;45.74
6094;BME280;19964;42.060;24.700;2023-08-06T11:34:40;96166.38;;;31.78;47.82
6094;BME280;19964;42.060;24.700;2023-08-06T11:37:06;96167.03;;;31.34;46.34
6094;BME280;19964;42.060;24.700;2023-08-06T11:39:35;96156.06;;;31.15;48.00
6094;BME280;19964;42.060;24.700;2023-08-06T11:42:02;96161.75;;;31.24;48.21
6094;BME280;19964;42.060;24.700;2023-08-06T11:44:29;96157.03;;;31.49;46.16
6094;BME280;19964;42.060;24.700;2023-08-06T11:46:57;96156.19;;;31.59;46.30
6094;BME280;19964;42.060;24.700;2023-08-06T11:49:39;96164.59;;;31.61;46.29
6094;BME280;19964;42.060;24.700;2023-08-06T11:52:10;96164.66;;;32.05;46.84
6094;BME280;19964;42.060;24.700;2023-08-06T11:54:39;96166.31;;;31.92;45.74
6094;BME280;19964;42.060;24.700;2023-08-06T11:57:06;96163.22;;;31.32;47.59
6094;BME280;19964;42.060;24.700;2023-08-06T11:59:33;96152.63;;;31.11;46.69
6094;BME280;19964;42.060;24.700;2023-08-06T12:02:01;96161.28;;;31.43;48.03
6094;BME280;19964;42.060;24.700;2023-08-06T12:04:27;96163.59;;;31.37;45.36
6094;BME280;19964;42.060;24.700;2023-08-06T12:06:54;96175.44;;;31.33;45.42
6094;BME280;19964;42.060;24.700;2023-08-06T12:09:21;96177.00;;;31.37;45.17
6094;BME280;19964;42.060;24.700;2023-08-06T12:11:49;96172.78;;;31.36;46.70
6094;BME280;19964;42.060;24.700;2023-08-06T12:14:15;96170.22;;;31.12;46.66
6094;BME280;19964;42.060;24.700;2023-08-06T12:16:42;96170.59;;;31.14;45.66
6094;BME280;19964;42.060;24.700;2023-08-06T12:19:09;96170.69;;;30.93;45.81
6094;BME280;19964;42.060;24.700;2023-08-06T12:21:35;96179.84;;;30.95;46.43
6094;BME280;19964;42.060;24.700;2023-08-06T12:24:02;96177.59;;;30.72;45.96
6094;BME280;19964;42.060;24.700;2023-08-06T12:26:29;96168.81;;;30.72;47.00
6094;BME280;19964;42.060;24.700;2023-08-06T12:28:57;96175.34;;;30.60;45.82
6094;BME280;19964;42.060;24.700;2023-08-06T12:31:24;96180.66;;;30.71;45.69
6094;BME280;19964;42.060;24.700;2023-08-06T12:33:50;96174.22;;;30.58;46.80
6094;BME280;19964;42.060;24.700;2023-08-06T12:36:17;96164.31;;;30.48;47.53
6094;BME280;19964;42.060;24.700;2023-08-06T12:38:43;96168.13;;;30.40;46.12
6094;BME280;19964;42.060;24.700;2023-08-06T12:41:11;96174.97;;;30.62;46.32
6094;BME280;19964;42.060;24.700;2023-08-06T12:43:38;96168.88;;;30.54;47.03
6094;BME280;19964;42.060;24.700;2023-08-06T12:46:06;96171.59;;;30.37;46.40
6094;BME280;19964;42.060;24.700;2023-08-06T12:48:33;96168.94;;;30.02;46.40
6094;BME280;19964;42.060;24.700;2023-08-06T12:50:59;96177.72;;;30.06;46.52
6094;BME280;19964;42.060;24.700;2023-08-06T12:53:26;96177.72;;;30.06;46.12
6094;BME280;19964;42.060;24.700;2023-08-06T12:55:53;96181.91;;;30.00;45.46